Time;durP1;ratioP1;P1;durP2;ratioP2;P2;SDS_P1;SDS_P2;PMS_P1;PMS_P2;Temp;Humidity;BMP_temperature;BMP_pressure;BME280_temperature;BME280_humidity;BME280_pressure;Samples;Min_cycle;Max_cycle;Signal;HPM_P1;HPM_P2
2022/10/29 05:02:10;;;;;;;9.27;4.85;;;14.60;99.90;;;;;;11612484;23;20495;-76
2022/10/29 05:07:12;;;;;;;11.00;4.63;;;14.40;99.90;;;;;;10238789;29;20048;-75
2022/10/29 05:12:14;;;;;;;13.80;4.38;;;14.30;99.90;;;;;;10262980;28;20495;-77
2022/10/29 05:17:17;;;;;;;10.23;3.97;;;14.30;99.90;;;;;;10293270;28;20070;-76
2022/10/29 05:22:19;;;;;;;9.75;4.47;;;14.40;99.90;;;;;;10273763;28;20051;-75
2022/10/29 05:27:21;;;;;;;12.80;4.40;;;14.40;99.90;;;;;;10263320;28;20053;-73
2022/10/29 05:32:24;;;;;;;12.30;3.92;;;14.40;99.90;;;;;;10260165;28;20075;-74
2022/10/29 05:37:26;;;;;;;11.35;4.38;;;14.40;99.90;;;;;;10277280;28;20504;-74
2022/10/29 05:42:28;;;;;;;12.80;4.60;;;14.20;99.90;;;;;;10257285;28;20491;-76
2022/10/29 05:47:31;;;;;;;11.07;4.38;;;14.20;99.90;;;;;;10227844;28;20082;-76
2022/10/29 05:52:33;;;;;;;12.80;4.45;;;14.20;99.90;;;;;;10232395;28;20378;-75
2022/10/29 05:57:35;;;;;;;13.85;4.03;;;14.20;99.90;;;;;;10272333;28;20070;-75
2022/10/29 06:02:38;;;;;;;11.27;4.25;;;14.20;99.90;;;;;;10266396;28;20054;-75
2022/10/29 06:07:41;;;;;;;12.93;5.10;;;14.10;99.90;;;;;;10296922;28;20046;-75
2022/10/29 06:12:42;;;;;;;11.15;4.55;;;14.20;99.90;;;;;;10279900;28;20456;-75
2022/10/29 06:17:46;;;;;;;10.85;4.68;;;14.20;99.90;;;;;;10255672;29;20074;-73
2022/10/29 06:22:56;;;;;;;14.90;4.45;;;14.20;99.90;;;;;;10264056;28;20125;-74
2022/10/29 06:28:00;;;;;;;11.73;4.57;;;14.10;99.90;;;;;;10277172;28;20055;-77
2022/10/29 06:33:05;;;;;;;14.80;5.03;;;14.00;99.90;;;;;;10234632;28;20099;-75
2022/10/29 06:38:07;;;;;;;10.90;4.10;;;14.00;99.90;;;;;;10247457;28;20109;-76
2022/10/29 06:43:12;;;;;;;10.27;3.85;;;14.00;99.90;;;;;;10270481;28;20484;-76
2022/10/29 06:48:15;;;;;;;17.05;8.65;;;14.00;99.90;;;;;;10280788;28;20381;-74
2022/10/29 06:53:18;;;;;;;25.20;12.77;;;14.00;99.90;;;;;;10249341;28;20081;-75
2022/10/29 06:58:21;;;;;;;24.60;11.75;;;14.00;99.90;;;;;;10288563;28;20047;-76
2022/10/29 07:03:25;;;;;;;23.80;10.40;;;14.10;99.90;;;;;;10279497;28;20118;-74
2022/10/29 07:08:27;;;;;;;12.98;4.90;;;14.10;99.90;;;;;;10263526;28;20055;-77
2022/10/29 07:13:30;;;;;;;13.07;4.75;;;14.10;99.90;;;;;;10222030;28;20099;-74
2022/10/29 07:18:34;;;;;;;10.93;5.22;;;14.20;99.90;;;;;;10259321;28;20071;-75
2022/10/29 07:23:36;;;;;;;12.10;5.72;;;14.20;99.90;;;;;;10264463;28;20056;-73
2022/10/29 07:28:39;;;;;;;13.32;5.85;;;14.20;99.90;;;;;;10241249;28;20047;-75
2022/10/29 07:33:42;;;;;;;13.00;5.20;;;14.20;99.90;;;;;;10274847;28;20058;-77
2022/10/29 07:38:44;;;;;;;15.32;5.18;;;14.20;99.90;;;;;;10250900;28;20059;-78
2022/10/29 07:43:46;;;;;;;14.63;5.53;;;14.50;99.90;;;;;;10293503;28;20050;-78
2022/10/29 07:48:49;;;;;;;13.52;5.28;;;14.60;99.90;;;;;;10302693;28;20074;-77
2022/10/29 07:53:51;;;;;;;12.05;4.97;;;14.70;99.90;;;;;;10266002;28;20083;-80
2022/10/29 07:58:53;;;;;;;11.63;5.60;;;14.90;99.90;;;;;;10269171;28;20070;-79
2022/10/29 08:03:56;;;;;;;18.17;5.80;;;14.90;99.90;;;;;;10220134;28;20063;-77
2022/10/29 08:08:58;;;;;;;17.13;5.93;;;15.00;99.90;;;;;;10288032;28;20046;-77
2022/10/29 08:14:00;;;;;;;10.93;5.68;;;15.10;99.90;;;;;;10254363;28;20052;-79
2022/10/29 08:19:03;;;;;;;17.50;5.45;;;15.20;99.90;;;;;;10231072;28;20085;-80
2022/10/29 08:24:06;;;;;;;12.27;5.93;;;15.30;99.90;;;;;;10226674;28;20571;-79
2022/10/29 08:29:08;;;;;;;13.13;5.68;;;15.40;99.90;;;;;;10272279;28;20149;-79
2022/10/29 08:34:11;;;;;;;16.63;5.47;;;15.50;99.90;;;;;;10258316;28;20138;-77
2022/10/29 08:39:13;;;;;;;17.90;5.70;;;15.60;99.90;;;;;;10287788;28;20515;-79
2022/10/29 08:44:57;;;;;;;13.93;6.32;;;15.70;99.90;;;;;;10276835;28;20074;-76
2022/10/29 08:50:11;;;;;;;16.50;6.00;;;15.90;99.90;;;;;;10269549;28;20106;-79
2022/10/29 08:55:17;;;;;;;11.95;5.65;;;16.00;99.90;;;;;;10299392;28;20051;-79
2022/10/29 09:00:22;;;;;;;14.43;6.75;;;16.10;99.90;;;;;;10299798;28;20047;-78
2022/10/29 09:05:32;;;;;;;16.10;6.85;;;16.20;99.90;;;;;;10299793;28;20085;-79
2022/10/29 09:10:43;;;;;;;17.40;5.85;;;16.40;99.90;;;;;;10300027;28;20059;-78
2022/10/29 09:16:01;;;;;;;16.10;5.63;;;16.50;99.90;;;;;;10299261;28;20135;-79
2022/10/29 09:21:23;;;;;;;17.35;6.40;;;16.60;99.90;;;;;;10298690;28;20106;-79
2022/10/29 09:26:31;;;;;;;18.02;6.00;;;16.70;99.90;;;;;;10299192;28;20046;-76
2022/10/29 09:31:41;;;;;;;12.48;4.95;;;16.80;99.90;;;;;;10298402;28;20046;-78
2022/10/29 09:36:45;;;;;;;14.52;4.90;;;17.00;99.90;;;;;;10298532;28;20055;-78
2022/10/29 09:41:49;;;;;;;13.02;4.70;;;17.30;99.90;;;;;;10297934;28;20051;-77
2022/10/29 09:47:04;;;;;;;13.27;5.90;;;17.40;99.90;;;;;;10297417;28;20484;-78
2022/10/29 09:52:15;;;;;;;11.93;4.70;;;17.50;99.90;;;;;;10297986;28;20082;-78
2022/10/29 09:57:22;;;;;;;15.52;4.93;;;17.60;99.90;;;;;;10297595;28;20055;-79
2022/10/29 10:02:33;;;;;;;13.32;4.32;;;17.70;99.90;;;;;;10297070;28;20087;-77
2022/10/29 10:07:36;;;;;;;12.52;4.40;;;17.90;99.90;;;;;;10296882;28;20043;-77
2022/10/29 10:12:46;;;;;;;10.38;4.13;;;18.10;99.90;;;;;;10297052;28;20082;-77
2022/10/29 10:17:58;;;;;;;11.32;4.22;;;18.30;99.90;;;;;;10296635;28;20440;-78
2022/10/29 10:23:02;;;;;;;14.20;4.57;;;18.30;99.90;;;;;;10297162;28;20433;-79
2022/10/29 10:28:17;;;;;;;12.85;4.10;;;18.40;99.90;;;;;;10296442;28;20047;-78
2022/10/29 10:33:27;;;;;;;15.15;5.60;;;18.50;99.90;;;;;;10264301;28;20389;-79
2022/10/29 10:38:39;;;;;;;12.77;4.22;;;18.60;99.90;;;;;;10256498;29;20400;-77
2022/10/29 10:43:44;;;;;;;9.77;3.85;;;18.80;99.90;;;;;;10257673;28;20078;-79
2022/10/29 10:49:02;;;;;;;17.55;4.68;;;18.90;99.90;;;;;;10274674;28;20048;-76
2022/10/29 10:54:27;;;;;;;13.60;5.22;;;19.00;99.90;;;;;;10234808;28;20571;-76
2022/10/29 10:59:54;;;;;;;13.45;5.15;;;19.00;99.90;;;;;;10275048;28;20082;-76
2022/10/29 11:05:01;;;;;;;14.23;4.50;;;19.20;99.90;;;;;;10275430;28;20479;-75
2022/10/29 11:10:10;;;;;;;13.10;4.72;;;19.30;99.90;;;;;;10297141;28;20051;-76
2022/10/29 11:15:18;;;;;;;14.52;5.20;;;19.40;99.90;;;;;;10265032;28;20078;-75
2022/10/29 11:20:25;;;;;;;16.02;6.32;;;19.40;99.90;;;;;;10249287;29;20070;-76
2022/10/29 11:25:35;;;;;;;18.42;5.70;;;19.50;99.90;;;;;;10259430;28;20075;-73
2022/10/29 11:30:44;;;;;;;13.00;5.32;;;19.80;99.90;;;;;;10276563;28;20141;-76
2022/10/29 11:35:53;;;;;;;12.63;5.70;;;19.90;99.90;;;;;;10264312;28;20066;-75
2022/10/29 11:41:04;;;;;;;18.15;6.10;;;20.10;99.90;;;;;;10257303;28;20504;-73
2022/10/29 11:46:12;;;;;;;15.20;6.25;;;20.30;99.90;;;;;;10259616;28;20511;-75
2022/10/29 11:51:26;;;;;;;15.13;5.97;;;20.50;99.90;;;;;;10248418;28;20135;-75
2022/10/29 11:56:50;;;;;;;15.82;6.20;;;20.70;99.90;;;;;;10261187;28;20078;-75
2022/10/29 12:01:59;;;;;;;14.10;6.18;;;20.90;99.90;;;;;;10286130;28;20043;-75
2022/10/29 12:07:22;;;;;;;14.45;5.90;;;21.20;99.90;;;;;;10249167;29;20051;-73
2022/10/29 12:12:34;;;;;;;17.15;6.28;;;21.40;99.90;;;;;;10251600;28;20055;-76
2022/10/29 12:17:43;;;;;;;15.00;5.68;;;21.60;99.90;;;;;;10284158;28;20554;-75
2022/10/29 12:22:52;;;;;;;16.02;5.75;;;22.00;99.50;;;;;;10283830;28;20105;-74
2022/10/29 12:28:10;;;;;;;13.93;4.95;;;22.30;99.30;;;;;;10255139;28;20047;-75
2022/10/29 12:33:20;;;;;;;14.57;5.53;;;22.60;99.50;;;;;;10264660;28;20150;-75
2022/10/29 12:38:37;;;;;;;13.60;5.05;;;22.90;99.80;;;;;;10289722;28;20575;-75
2022/10/29 12:43:41;;;;;;;10.03;4.60;;;23.10;98.90;;;;;;10269113;28;20750;-75
2022/10/29 12:48:56;;;;;;;12.02;4.53;;;23.40;98.00;;;;;;10294442;28;20043;-73
2022/10/29 12:54:16;;;;;;;15.45;4.38;;;23.70;97.10;;;;;;10281341;28;20141;-75
2022/10/29 12:59:34;;;;;;;11.27;4.55;;;23.90;96.50;;;;;;10255059;29;20082;-74
2022/10/29 13:04:36;;;;;;;15.63;4.55;;;24.20;95.20;;;;;;10277313;28;20059;-75
2022/10/29 13:09:37;;;;;;;11.15;4.70;;;24.30;95.10;;;;;;10254389;29;20459;-75
2022/10/29 13:14:46;;;;;;;15.43;4.75;;;24.40;94.80;;;;;;10275076;28;20417;-74
2022/10/29 13:19:54;;;;;;;12.10;4.88;;;24.70;94.30;;;;;;10253496;29;20082;-74
2022/10/29 13:25:42;;;;;;;12.25;5.13;;;25.20;94.00;;;;;;10292573;28;20066;-74
2022/10/29 13:30:48;;;;;;;14.52;5.07;;;26.10;92.50;;;;;;10263309;28;20141;-76
2022/10/29 13:35:53;;;;;;;19.08;5.43;;;28.80;86.00;;;;;;10247233;28;20106;-74
2022/10/29 13:41:13;;;;;;;11.93;5.28;;;29.40;81.50;;;;;;10253543;28;20082;-75
2022/10/29 13:46:51;;;;;;;13.95;4.80;;;29.80;78.30;;;;;;10255198;28;20082;-74
2022/10/29 13:51:58;;;;;;;12.77;5.35;;;30.00;74.30;;;;;;10262706;28;20051;-74
2022/10/29 13:57:03;;;;;;;15.87;5.70;;;30.20;74.20;;;;;;10260387;28;20054;-74
2022/10/29 14:02:26;;;;;;;16.02;6.15;;;29.50;75.20;;;;;;10251805;28;20047;-74
2022/10/29 14:07:34;;;;;;;14.50;5.32;;;29.00;75.20;;;;;;10260665;28;20141;-74
2022/10/29 14:12:38;;;;;;;15.80;5.00;;;28.60;75.80;;;;;;10239529;29;20540;-75
2022/10/29 14:17:41;;;;;;;11.70;4.75;;;28.50;78.80;;;;;;10264942;28;20127;-73
2022/10/29 14:22:44;;;;;;;12.75;5.03;;;28.70;78.70;;;;;;10274372;28;20043;-75
2022/10/29 14:27:46;;;;;;;14.68;5.05;;;29.00;77.80;;;;;;10252019;28;20428;-76
2022/10/29 14:32:55;;;;;;;16.65;5.68;;;29.30;76.90;;;;;;10269354;28;20074;-74
2022/10/29 14:37:57;;;;;;;14.80;5.43;;;28.80;76.60;;;;;;10266939;28;20468;-74
2022/10/29 14:42:59;;;;;;;13.70;5.90;;;28.30;78.70;;;;;;10251992;29;20113;-74
2022/10/29 14:48:10;;;;;;;11.68;5.35;;;27.90;80.00;;;;;;10266878;28;20552;-75
2022/10/29 14:53:29;;;;;;;10.73;4.70;;;27.60;84.90;;;;;;10285481;28;20469;-76
2022/10/29 14:58:33;;;;;;;13.48;5.05;;;27.20;87.00;;;;;;10273788;28;20055;-74
2022/10/29 15:03:37;;;;;;;13.27;6.00;;;26.70;89.60;;;;;;10251044;29;20087;-74
2022/10/29 15:08:40;;;;;;;21.70;9.70;;;26.30;90.80;;;;;;10252403;29;20077;-76
2022/10/29 15:13:45;;;;;;;14.15;6.57;;;25.90;90.90;;;;;;10259714;28;20094;-77
2022/10/29 15:18:53;;;;;;;14.13;5.95;;;25.80;91.50;;;;;;10272939;28;20094;-75
2022/10/29 15:24:00;;;;;;;30.92;12.40;;;25.50;92.10;;;;;;10211032;29;20052;-75
2022/10/29 15:29:09;;;;;;;15.32;6.38;;;25.10;92.90;;;;;;10235831;28;20110;-73
2022/10/29 15:34:18;;;;;;;16.73;6.35;;;24.80;93.80;;;;;;10259124;29;20082;-75
2022/10/29 15:39:25;;;;;;;15.48;5.35;;;24.40;94.40;;;;;;10263503;28;20078;-77
2022/10/29 15:44:35;;;;;;;16.38;6.63;;;24.10;95.10;;;;;;10263688;28;20484;-72
2022/10/29 15:49:38;;;;;;;13.32;5.78;;;23.80;95.80;;;;;;10224845;28;20500;-76
2022/10/29 15:54:40;;;;;;;16.08;6.10;;;23.50;96.70;;;;;;10288492;28;20093;-76
2022/10/29 15:59:42;;;;;;;13.73;6.20;;;23.30;95.30;;;;;;10286475;28;20509;-76
2022/10/29 16:04:45;;;;;;;12.63;5.38;;;23.10;96.60;;;;;;10258531;28;20141;-75
2022/10/29 16:09:51;;;;;;;12.13;5.47;;;22.90;99.50;;;;;;10273018;28;20121;-78
2022/10/29 16:14:53;;;;;;;15.25;5.88;;;22.40;99.90;;;;;;10279333;28;20058;-76
2022/10/29 16:19:57;;;;;;;16.30;6.47;;;22.40;99.20;;;;;;10254755;28;20105;-76
2022/10/29 16:24:58;;;;;;;16.23;6.15;;;22.30;99.90;;;;;;10241386;28;20130;-74
2022/10/29 16:30:00;;;;;;;19.98;10.48;;;21.70;99.90;;;;;;10225438;28;20547;-76
2022/10/29 16:35:06;;;;;;;19.73;7.05;;;21.80;99.90;;;;;;10256466;28;20054;-76
2022/10/29 16:40:10;;;;;;;16.83;6.18;;;21.30;99.90;;;;;;10264073;28;20051;-76
2022/10/29 16:45:17;;;;;;;17.33;6.28;;;21.30;99.90;;;;;;10231429;28;20473;-77
2022/10/29 16:50:23;;;;;;;17.75;6.43;;;21.20;99.90;;;;;;10223274;28;20138;-75
2022/10/29 16:55:25;;;;;;;19.17;11.25;;;21.30;99.90;;;;;;10277407;28;20137;-76
2022/10/29 17:00:30;;;;;;;18.75;7.57;;;21.30;99.90;;;;;;10268923;28;20492;-75
2022/10/29 17:05:37;;;;;;;17.77;7.43;;;21.20;99.90;;;;;;10227020;29;20051;-73
2022/10/29 17:10:39;;;;;;;15.90;6.20;;;21.10;99.90;;;;;;10241217;28;20054;-76
2022/10/29 17:15:41;;;;;;;14.23;6.30;;;20.90;99.90;;;;;;10290931;28;20082;-74
2022/10/29 17:20:55;;;;;;;14.80;6.50;;;20.80;99.90;;;;;;10273018;28;20138;-76
2022/10/29 17:25:58;;;;;;;14.52;6.43;;;20.60;99.90;;;;;;10233675;28;20461;-74
2022/10/29 17:31:04;;;;;;;15.82;6.50;;;20.50;99.90;;;;;;10247685;28;20054;-75
2022/10/29 17:36:12;;;;;;;16.50;7.50;;;20.40;99.90;;;;;;10254982;28;20138;-78
2022/10/29 17:41:14;;;;;;;13.90;6.20;;;20.20;99.90;;;;;;10276064;28;20169;-75
2022/10/29 17:46:17;;;;;;;15.77;6.30;;;20.10;99.90;;;;;;10273469;28;20075;-77
2022/10/29 17:51:20;;;;;;;15.32;6.93;;;20.00;99.90;;;;;;10258343;28;20047;-76
2022/10/29 17:56:22;;;;;;;16.05;7.22;;;19.80;99.90;;;;;;10266783;28;20239;-77
2022/10/29 18:01:26;;;;;;;19.13;7.28;;;19.70;99.90;;;;;;10254497;29;20063;-76
2022/10/29 18:06:29;;;;;;;19.88;8.95;;;19.60;99.90;;;;;;10277409;28;20059;-78
2022/10/29 18:11:31;;;;;;;20.15;8.23;;;19.50;99.90;;;;;;10256656;29;20070;-80
2022/10/29 18:16:33;;;;;;;16.83;7.72;;;19.50;99.90;;;;;;10254551;28;20055;-77
2022/10/29 18:21:37;;;;;;;15.05;7.13;;;19.50;99.90;;;;;;10289015;28;20063;-79
2022/10/29 18:26:39;;;;;;;18.63;6.80;;;19.40;99.90;;;;;;10295105;28;20183;-77
2022/10/29 18:31:43;;;;;;;19.33;7.32;;;19.30;99.90;;;;;;10272243;28;20079;-77
2022/10/29 18:36:47;;;;;;;18.27;7.30;;;19.30;99.90;;;;;;10267758;28;20054;-77
2022/10/29 18:41:49;;;;;;;19.48;8.05;;;19.10;99.90;;;;;;10276194;28;20062;-79
2022/10/29 18:46:51;;;;;;;17.92;7.28;;;19.00;99.90;;;;;;10246726;28;20050;-78
2022/10/29 18:51:54;;;;;;;16.13;7.60;;;18.90;99.90;;;;;;10300463;28;20125;-76
2022/10/29 18:56:56;;;;;;;20.98;8.68;;;18.80;99.90;;;;;;10302672;28;20396;-76
2022/10/29 19:01:58;;;;;;;21.73;8.35;;;18.60;99.90;;;;;;10289285;28;20142;-75
2022/10/29 19:07:01;;;;;;;19.08;9.10;;;18.40;99.90;;;;;;10287208;28;20051;-77
2022/10/29 19:12:03;;;;;;;19.52;9.07;;;18.40;99.90;;;;;;10272385;28;20145;-78
2022/10/29 19:17:05;;;;;;;23.00;9.23;;;18.40;99.90;;;;;;10263984;28;20074;-75
2022/10/29 19:22:09;;;;;;;21.90;11.93;;;18.50;99.90;;;;;;10261514;28;20055;-77
2022/10/29 19:27:10;;;;;;;20.42;11.38;;;18.50;99.90;;;;;;10269685;28;20058;-78
2022/10/29 19:32:12;;;;;;;24.20;10.57;;;18.50;99.90;;;;;;10273534;28;20058;-78
2022/10/29 19:37:15;;;;;;;17.90;9.32;;;18.50;99.90;;;;;;10274362;28;20086;-75
2022/10/29 19:42:17;;;;;;;20.23;9.50;;;18.40;99.90;;;;;;10284529;28;20074;-76
2022/10/29 19:47:19;;;;;;;19.38;9.20;;;18.40;99.90;;;;;;10267494;28;20055;-76
2022/10/29 19:52:23;;;;;;;17.00;9.25;;;18.30;99.90;;;;;;10294872;28;20055;-74
2022/10/29 19:57:24;;;;;;;19.90;8.50;;;18.30;99.90;;;;;;10286955;28;20051;-76
2022/10/29 20:02:26;;;;;;;18.52;8.35;;;18.20;99.90;;;;;;10248953;28;20087;-74
2022/10/29 20:07:29;;;;;;;26.75;9.15;;;18.10;99.90;;;;;;10252995;29;20055;-74
2022/10/29 20:12:31;;;;;;;18.40;9.55;;;17.90;99.90;;;;;;10270531;28;20463;-75
2022/10/29 20:17:33;;;;;;;17.45;8.93;;;17.80;99.90;;;;;;10295880;28;20046;-74
2022/10/29 20:22:36;;;;;;;19.27;8.45;;;17.80;99.90;;;;;;10283770;28;20051;-77
2022/10/29 20:27:38;;;;;;;19.23;8.70;;;17.70;99.90;;;;;;10296645;28;20050;-75
2022/10/29 20:32:40;;;;;;;20.88;8.27;;;17.70;99.90;;;;;;10287147;28;20106;-75
2022/10/29 20:37:44;;;;;;;18.52;8.23;;;17.50;99.90;;;;;;10291487;28;20082;-74
2022/10/29 20:42:49;;;;;;;19.80;8.18;;;17.40;99.90;;;;;;10290372;28;20059;-76
2022/10/29 20:47:51;;;;;;;17.85;7.13;;;17.30;99.90;;;;;;10266024;28;20051;-75
2022/10/29 20:52:54;;;;;;;18.98;8.20;;;17.20;99.90;;;;;;10271133;28;20161;-77
2022/10/29 20:57:58;;;;;;;18.02;7.80;;;17.10;99.90;;;;;;10298189;28;20082;-76
2022/10/29 21:02:59;;;;;;;19.67;8.25;;;17.20;99.90;;;;;;10272908;28;20501;-76
2022/10/29 21:08:03;;;;;;;22.02;8.10;;;17.10;99.90;;;;;;10283222;28;20054;-77
2022/10/29 21:13:05;;;;;;;18.77;7.88;;;17.10;99.90;;;;;;10304920;28;20050;-78
2022/10/29 21:18:07;;;;;;;18.55;7.63;;;17.00;99.90;;;;;;10266825;28;20047;-78
2022/10/29 21:23:11;;;;;;;16.27;7.82;;;17.00;99.90;;;;;;10274695;28;20531;-76
2022/10/29 21:28:13;;;;;;;19.20;8.68;;;16.90;99.90;;;;;;10269565;28;20046;-77
2022/10/29 21:33:15;;;;;;;20.23;9.75;;;16.90;99.90;;;;;;10272026;28;20059;-75
2022/10/29 21:38:18;;;;;;;23.27;10.27;;;16.90;99.90;;;;;;10266024;28;20082;-73
2022/10/29 21:43:21;;;;;;;20.65;10.10;;;16.70;99.90;;;;;;10278293;28;20540;-76
2022/10/29 21:48:25;;;;;;;19.45;10.48;;;16.80;99.90;;;;;;10266992;28;20051;-77
2022/10/29 21:53:29;;;;;;;18.52;8.93;;;16.80;99.90;;;;;;10290861;28;20051;-75
2022/10/29 21:58:31;;;;;;;15.73;7.95;;;16.70;99.90;;;;;;10279743;28;20079;-75
